createdAt,value
2019-05-22T00:00:22.574Z,68.58
2019-05-22T00:02:50.134Z,69.24
2019-05-22T00:05:22.443Z,69.22
2019-05-22T00:07:49.966Z,69.56
2019-05-22T00:10:19.387Z,69.62
2019-05-22T00:12:47.327Z,69.59
2019-05-22T00:15:14.457Z,69.86
2019-05-22T00:17:41.959Z,70.15
2019-05-22T00:20:09.498Z,70.22
2019-05-22T00:22:37.019Z,70.22
2019-05-22T00:25:04.520Z,70.25
2019-05-22T00:27:32.003Z,70.44
2019-05-22T00:29:59.566Z,70.18
2019-05-22T00:32:27.099Z,70.23
2019-05-22T00:34:54.573Z,70.17
2019-05-22T00:37:22.093Z,70.33
2019-05-22T00:39:49.729Z,70.21
2019-05-22T00:42:17.216Z,69.94
2019-05-22T00:44:44.732Z,70.19
2019-05-22T00:47:12.272Z,69.56
2019-05-22T00:49:39.782Z,69.37
2019-05-22T00:52:12.967Z,69.24
2019-05-22T00:54:42.014Z,69.30
2019-05-22T00:57:10.229Z,68.98
2019-05-22T00:59:39.597Z,68.95
2019-05-22T01:02:08.025Z,68.94
2019-05-22T01:04:35.919Z,68.89
2019-05-22T01:07:04.080Z,68.85
2019-05-22T01:09:37.576Z,68.73
2019-05-22T01:12:05.052Z,68.69
2019-05-22T01:14:42.310Z,68.97
2019-05-22T01:17:00.047Z,69.22
2019-05-22T01:19:27.496Z,69.59
2019-05-22T01:21:54.979Z,69.92
2019-05-22T01:24:22.479Z,70.03
2019-05-22T01:26:49.968Z,70.36
2019-05-22T01:29:17.418Z,70.84
2019-05-22T01:31:47.288Z,71.11
2019-05-22T01:34:24.255Z,71.27
2019-05-22T01:36:51.759Z,71.06
2019-05-22T01:39:21.730Z,70.99
2019-05-22T01:41:49.223Z,70.80
2019-05-22T01:44:16.677Z,70.61
2019-05-22T01:46:44.223Z,70.52
2019-05-22T01:49:11.690Z,70.37
2019-05-22T01:51:39.199Z,70.43
2019-05-22T01:54:06.696Z,70.36
2019-05-22T01:56:34.236Z,70.22
2019-05-22T01:59:01.703Z,70.39
2019-05-22T02:01:29.687Z,70.38
2019-05-22T02:03:57.360Z,70.60
2019-05-22T02:06:24.836Z,70.78
2019-05-22T02:08:53.868Z,70.99
2019-05-22T02:11:21.438Z,71.01
2019-05-22T02:13:50.847Z,71.08
2019-05-22T02:16:18.331Z,70.97
2019-05-22T02:18:45.797Z,70.79
2019-05-22T02:21:13.280Z,70.79
2019-05-22T02:23:40.773Z,70.75
2019-05-22T02:26:08.257Z,70.64
2019-05-22T02:28:35.846Z,70.53
2019-05-22T02:31:03.336Z,70.36
2019-05-22T02:33:30.794Z,70.43
2019-05-22T02:35:58.342Z,70.62
2019-05-22T02:38:25.854Z,70.75
2019-05-22T02:40:53.397Z,70.69
2019-05-22T02:43:20.889Z,70.64
2019-05-22T02:45:48.403Z,70.70
2019-05-22T02:48:15.872Z,70.90
2019-05-22T02:50:43.484Z,71.05
2019-05-22T02:53:10.931Z,71.22
2019-05-22T02:55:38.516Z,71.44
2019-05-22T02:58:05.995Z,71.33
2019-05-22T03:00:36.305Z,71.22
2019-05-22T03:03:03.801Z,71.26
2019-05-22T03:05:31.289Z,71.38
2019-05-22T03:07:58.778Z,71.67
2019-05-22T03:10:26.271Z,72.04
2019-05-22T03:12:53.727Z,72.39
2019-05-22T03:15:21.310Z,72.70
2019-05-22T03:17:48.779Z,73.11
2019-05-22T03:20:16.370Z,73.28
2019-05-22T03:22:47.496Z,73.24
2019-05-22T03:25:15.052Z,73.36
2019-05-22T03:27:48.471Z,73.36
2019-05-22T03:30:22.622Z,73.43
2019-05-22T03:32:50.122Z,73.49
2019-05-22T03:35:17.651Z,73.30
2019-05-22T03:37:45.170Z,73.06
2019-05-22T03:40:12.661Z,73.06
2019-05-22T03:42:40.148Z,72.89
2019-05-22T03:45:07.608Z,72.80
2019-05-22T03:47:35.064Z,72.92
2019-05-22T03:50:02.574Z,73.01
2019-05-22T03:52:30.039Z,73.08
2019-05-22T03:54:57.592Z,73.43
2019-05-22T03:57:25.050Z,73.75
2019-05-22T03:59:52.635Z,73.59
2019-05-22T04:02:20.098Z,73.42
2019-05-22T04:04:47.574Z,73.25
2019-05-22T04:07:15.988Z,73.07
2019-05-22T04:09:43.471Z,72.95
2019-05-22T04:12:10.981Z,72.84
2019-05-22T04:14:38.512Z,72.81
2019-05-22T04:17:06.788Z,72.86
2019-05-22T04:19:48.577Z,72.73
2019-05-22T04:22:02.612Z,72.99
2019-05-22T04:24:30.130Z,73.04
2019-05-22T04:26:57.577Z,73.11
2019-05-22T04:29:25.073Z,73.13
2019-05-22T04:34:22.008Z,72.78
2019-05-22T04:36:49.488Z,72.98
2019-05-22T04:39:19.855Z,72.84
2019-05-22T04:41:47.319Z,72.67
2019-05-22T04:44:14.789Z,72.75
2019-05-22T04:46:42.242Z,72.82
2019-05-22T04:49:09.783Z,72.78
2019-05-22T04:51:37.371Z,72.51
2019-05-22T04:54:04.976Z,72.19
2019-05-22T04:56:32.478Z,72.12
2019-05-22T04:59:00.076Z,71.71
2019-05-22T05:01:27.599Z,71.35
2019-05-22T05:03:56.013Z,71.18
2019-05-22T05:06:23.459Z,70.80
2019-05-22T05:08:51.041Z,70.62
2019-05-22T05:11:18.599Z,70.28
2019-05-22T05:13:46.093Z,70.16
2019-05-22T05:16:13.572Z,70.16
2019-05-22T05:18:41.047Z,69.66
2019-05-22T05:21:08.543Z,69.48
2019-05-22T05:23:36.045Z,69.24
2019-05-22T05:26:03.531Z,68.96
2019-05-22T05:28:31.043Z,68.92
2019-05-22T05:30:58.630Z,68.74
2019-05-22T05:33:25.785Z,68.29
2019-05-22T05:35:52.827Z,67.87
2019-05-22T05:38:19.979Z,67.82
2019-05-22T05:40:47.095Z,67.94
2019-05-22T05:43:14.207Z,67.58
2019-05-22T05:45:41.457Z,67.34
2019-05-22T05:48:09.290Z,66.97
2019-05-22T05:50:40.210Z,66.53
2019-05-22T05:53:03.739Z,66.18
2019-05-22T05:55:37.675Z,66.10
2019-05-22T05:58:19.651Z,66.64
2019-05-22T06:00:49.787Z,67.58
2019-05-22T06:03:34.843Z,67.72
2019-05-22T06:06:02.577Z,67.60
2019-05-22T06:08:30.085Z,67.38
2019-05-22T06:10:57.127Z,66.92
2019-05-22T06:13:24.207Z,66.32
2019-05-22T06:15:53.963Z,66.43
2019-05-22T06:18:25.865Z,66.82
2019-05-22T06:21:03.291Z,67.03
2019-05-22T06:26:36.599Z,67.03
2019-05-22T06:29:04.179Z,67.59
2019-05-22T06:31:33.125Z,66.87
2019-05-22T06:34:00.164Z,66.15
2019-05-22T06:36:27.804Z,65.56
2019-05-22T06:38:54.915Z,65.84
2019-05-22T06:41:21.962Z,66.24
2019-05-22T06:43:54.872Z,66.22
2019-05-22T06:46:27.934Z,65.61
2019-05-22T06:48:54.963Z,64.73
2019-05-22T06:51:22.473Z,64.85
2019-05-22T06:53:49.519Z,64.05
2019-05-22T06:56:16.551Z,64.10
2019-05-22T06:58:43.600Z,63.12
2019-05-22T07:01:10.700Z,62.27
2019-05-22T07:03:37.727Z,61.15
2019-05-22T07:06:04.808Z,60.46
2019-05-22T07:08:31.826Z,59.43
2019-05-22T07:10:58.968Z,58.67
2019-05-22T07:13:26.040Z,57.75
2019-05-22T07:15:53.176Z,57.23
2019-05-22T07:18:20.315Z,57.26
2019-05-22T07:20:47.363Z,55.79
2019-05-22T07:23:15.301Z,55.24
2019-05-22T07:25:42.375Z,53.99
2019-05-22T07:28:09.394Z,53.55
2019-05-22T07:30:36.471Z,52.97
2019-05-22T07:33:03.693Z,53.34
2019-05-22T07:35:49.793Z,53.34
2019-05-22T07:37:57.874Z,52.76
2019-05-22T07:40:25.168Z,52.17
2019-05-22T07:42:52.185Z,51.98
2019-05-22T07:45:19.316Z,52.05
2019-05-22T07:47:46.361Z,50.93
2019-05-22T07:50:13.905Z,50.55
2019-05-22T07:52:41.395Z,50.01
2019-05-22T07:55:08.950Z,49.32
2019-05-22T07:57:36.551Z,49.69
2019-05-22T08:00:04.055Z,49.57
2019-05-22T08:02:34.410Z,49.59
2019-05-22T08:05:02.109Z,49.93
2019-05-22T08:07:29.761Z,49.30
2019-05-22T08:09:57.589Z,49.20
2019-05-22T08:12:25.166Z,49.03
2019-05-22T08:14:52.721Z,49.15
2019-05-22T08:17:19.737Z,49.18
2019-05-22T08:19:47.252Z,49.49
2019-05-22T08:22:14.343Z,49.60
2019-05-22T08:24:41.456Z,49.65
2019-05-22T08:27:08.502Z,49.86
2019-05-22T08:29:35.539Z,48.92
2019-05-22T08:32:02.541Z,47.45
2019-05-22T08:34:30.032Z,46.68
2019-05-22T08:36:57.555Z,46.68
2019-05-22T08:39:25.243Z,45.89
2019-05-22T08:41:52.401Z,45.25
2019-05-22T08:44:19.915Z,44.85
2019-05-22T08:46:46.962Z,43.36
2019-05-22T08:49:14.049Z,42.25
2019-05-22T08:51:41.578Z,42.14
2019-05-22T08:54:08.878Z,42.83
2019-05-22T08:56:36.271Z,42.84
2019-05-22T08:59:18.475Z,42.31
2019-05-22T09:01:30.680Z,42.84
2019-05-22T09:03:58.414Z,42.46
2019-05-22T09:06:26.104Z,42.62
2019-05-22T09:08:53.607Z,42.20
2019-05-22T09:11:21.101Z,41.92
2019-05-22T09:16:21.162Z,41.75
2019-05-22T09:18:48.949Z,41.38
2019-05-22T09:21:16.570Z,40.84
2019-05-22T09:23:44.709Z,40.62
2019-05-22T09:26:12.957Z,40.17
2019-05-22T09:28:40.577Z,40.01
2019-05-22T09:31:08.995Z,40.23
2019-05-22T09:33:36.447Z,40.02
2019-05-22T09:36:04.035Z,39.96
2019-05-22T09:38:31.698Z,40.93
2019-05-22T09:40:59.600Z,40.60
2019-05-22T09:43:27.112Z,40.93
2019-05-22T09:45:54.641Z,40.19
2019-05-22T09:48:22.186Z,39.67
2019-05-22T09:50:49.739Z,39.45
2019-05-22T09:53:17.674Z,39.33
2019-05-22T09:55:47.300Z,38.80
2019-05-22T09:58:12.227Z,38.23
2019-05-22T10:00:39.695Z,37.69
2019-05-22T10:03:07.208Z,37.42
2019-05-22T10:05:34.757Z,37.54
2019-05-22T10:08:02.244Z,37.44
2019-05-22T10:10:29.858Z,37.62
2019-05-22T10:12:57.447Z,37.17
2019-05-22T10:15:24.550Z,36.14
2019-05-22T10:17:52.048Z,35.84
2019-05-22T10:20:19.600Z,36.69
2019-05-22T10:22:46.764Z,36.27
2019-05-22T10:25:16.696Z,36.07
2019-05-22T10:27:41.878Z,35.43
2019-05-22T10:30:11.607Z,35.08
2019-05-22T10:32:38.674Z,34.72
2019-05-22T10:35:05.711Z,34.36
2019-05-22T10:37:32.728Z,34.19
2019-05-22T10:40:01.226Z,33.57
2019-05-22T10:42:28.417Z,33.34
2019-05-22T10:44:55.900Z,33.06
2019-05-22T10:47:22.978Z,32.85
2019-05-22T10:49:49.983Z,32.70
2019-05-22T10:52:17.014Z,32.68
2019-05-22T10:54:44.175Z,32.33
2019-05-22T10:57:11.745Z,31.67
2019-05-22T10:59:39.268Z,31.01
2019-05-22T11:02:06.748Z,31.48
2019-05-22T11:04:34.270Z,31.02
2019-05-22T11:07:01.835Z,30.80
2019-05-22T11:09:29.323Z,30.28
2019-05-22T11:11:56.903Z,30.00
2019-05-22T11:14:24.398Z,28.99
2019-05-22T11:16:51.957Z,28.84
2019-05-22T11:19:19.578Z,28.51
2019-05-22T11:21:47.115Z,27.93
2019-05-22T11:24:14.657Z,27.81
2019-05-22T11:26:42.131Z,28.22
2019-05-22T11:29:10.043Z,27.25
2019-05-22T11:31:37.541Z,27.27
2019-05-22T11:34:05.079Z,27.23
2019-05-22T11:36:32.544Z,28.01
2019-05-22T11:39:00.097Z,27.65
2019-05-22T11:41:27.657Z,27.36
2019-05-22T11:43:55.265Z,27.75
2019-05-22T11:46:22.776Z,27.97
2019-05-22T11:48:50.274Z,27.06
2019-05-22T11:51:17.768Z,27.21
2019-05-22T11:53:45.260Z,26.47
2019-05-22T11:56:13.027Z,26.87
2019-05-22T11:58:40.585Z,27.34
2019-05-22T12:01:08.404Z,27.25
2019-05-22T12:03:36.129Z,27.33
2019-05-22T12:06:03.640Z,27.57
2019-05-22T12:08:31.124Z,27.37
2019-05-22T12:10:58.607Z,28.07
2019-05-22T12:13:26.188Z,28.20
2019-05-22T12:15:53.620Z,28.32
2019-05-22T12:18:21.169Z,28.17
2019-05-22T12:20:48.837Z,28.01
2019-05-22T12:23:16.274Z,28.11
2019-05-22T12:25:43.712Z,28.35
2019-05-22T12:28:11.202Z,28.67
2019-05-22T12:30:38.655Z,29.16
2019-05-22T12:33:13.307Z,29.10
2019-05-22T12:35:34.155Z,28.62
2019-05-22T12:38:01.852Z,27.96
2019-05-22T12:40:29.352Z,28.17
2019-05-22T12:42:56.971Z,28.95
2019-05-22T12:45:24.541Z,28.56
2019-05-22T12:47:52.049Z,28.27
2019-05-22T12:50:19.558Z,28.56
2019-05-22T12:52:47.299Z,28.63
2019-05-22T12:55:14.774Z,29.24
2019-05-22T12:57:42.255Z,28.61
2019-05-22T13:00:09.745Z,28.36
2019-05-22T13:02:42.139Z,28.25
2019-05-22T13:05:06.247Z,27.92
2019-05-22T13:07:33.753Z,28.52
2019-05-22T13:10:01.241Z,28.66
2019-05-22T13:12:28.808Z,28.08
2019-05-22T13:15:09.165Z,28.46
2019-05-22T13:17:23.792Z,28.77
2019-05-22T13:19:51.307Z,28.58
2019-05-22T13:22:18.817Z,28.27
2019-05-22T13:24:46.280Z,27.98
2019-05-22T13:27:13.780Z,28.51
2019-05-22T13:29:41.238Z,28.88
2019-05-22T13:32:08.803Z,28.56
2019-05-22T13:34:36.382Z,28.52
2019-05-22T13:37:04.352Z,28.17
2019-05-22T13:39:32.080Z,28.38
2019-05-22T13:41:59.896Z,29.00
2019-05-22T13:44:27.408Z,29.11
2019-05-22T13:46:55.035Z,28.04
2019-05-22T13:49:22.591Z,28.12
2019-05-22T13:51:50.320Z,27.88
2019-05-22T13:54:18.019Z,28.20
2019-05-22T13:56:45.619Z,28.21
2019-05-22T13:59:13.335Z,28.48
2019-05-22T14:01:40.989Z,28.65
2019-05-22T14:04:08.488Z,28.51
2019-05-22T14:06:36.110Z,28.37
2019-05-22T14:09:03.987Z,28.33
2019-05-22T14:11:31.169Z,28.96
2019-05-22T14:13:58.685Z,29.22
2019-05-22T14:16:26.451Z,28.78
2019-05-22T14:18:54.063Z,29.08
2019-05-22T14:21:21.602Z,28.78
2019-05-22T14:23:49.454Z,28.55
2019-05-22T14:26:17.950Z,28.99
2019-05-22T14:28:45.596Z,28.70
2019-05-22T14:31:13.191Z,29.14
2019-05-22T14:33:41.012Z,28.87
2019-05-22T14:36:08.557Z,28.62
2019-05-22T14:38:36.097Z,28.44
2019-05-22T14:41:03.634Z,28.65
2019-05-22T14:43:31.110Z,28.96
2019-05-22T14:45:58.795Z,28.72
2019-05-22T14:48:26.484Z,29.14
2019-05-22T14:50:54.084Z,28.75
2019-05-22T14:53:22.116Z,29.11
2019-05-22T14:55:49.582Z,29.14
2019-05-22T14:58:17.077Z,29.87
2019-05-22T15:00:45.210Z,29.81
2019-05-22T15:03:12.701Z,29.60
2019-05-22T15:05:40.258Z,29.39
2019-05-22T15:08:07.739Z,29.17
2019-05-22T15:10:35.751Z,29.02
2019-05-22T15:13:03.219Z,28.81
2019-05-22T15:15:30.760Z,29.00
2019-05-22T15:17:58.273Z,29.12
2019-05-22T15:20:26.650Z,29.01
2019-05-22T15:22:56.309Z,28.91
2019-05-22T15:25:21.695Z,28.68
2019-05-22T15:27:49.180Z,28.75
2019-05-22T15:30:16.752Z,28.62
2019-05-22T15:32:44.436Z,29.03
2019-05-22T15:35:11.968Z,28.85
2019-05-22T15:40:12.299Z,28.87
2019-05-22T15:42:40.713Z,28.90
2019-05-22T15:45:08.303Z,29.01
2019-05-22T15:47:52.276Z,29.12
2019-05-22T15:50:03.641Z,29.05
2019-05-22T15:52:31.159Z,29.04
2019-05-22T15:54:58.605Z,29.01
2019-05-22T15:57:26.973Z,29.24
2019-05-22T15:59:54.475Z,29.44
2019-05-22T16:02:22.199Z,29.34
2019-05-22T16:04:49.555Z,29.64
2019-05-22T16:07:17.658Z,29.86
2019-05-22T16:09:45.622Z,29.79
2019-05-22T16:12:12.709Z,30.11
2019-05-22T16:14:40.167Z,30.30
2019-05-22T16:19:41.197Z,30.30
2019-05-22T16:22:08.675Z,30.20
2019-05-22T16:24:36.179Z,29.99
2019-05-22T16:27:03.716Z,30.38
2019-05-22T16:29:30.824Z,30.22
2019-05-22T16:31:57.871Z,30.28
2019-05-22T16:34:28.444Z,30.07
2019-05-22T16:36:53.328Z,30.02
2019-05-22T16:39:20.822Z,29.99
2019-05-22T16:41:48.326Z,30.32
2019-05-22T16:44:15.974Z,30.31
2019-05-22T16:46:43.465Z,30.34
2019-05-22T16:49:10.959Z,30.27
2019-05-22T16:51:38.497Z,30.46
2019-05-22T16:54:06.698Z,30.34
2019-05-22T16:56:33.777Z,30.15
2019-05-22T16:59:00.758Z,30.42
2019-05-22T17:01:29.031Z,30.26
2019-05-22T17:03:56.582Z,30.46
2019-05-22T17:06:24.112Z,30.34
2019-05-22T17:08:51.624Z,30.30
2019-05-22T17:11:19.608Z,30.16
2019-05-22T17:13:47.109Z,30.36
2019-05-22T17:16:14.130Z,30.64
2019-05-22T17:18:47.766Z,31.35
2019-05-22T17:21:08.398Z,31.33
2019-05-22T17:23:35.421Z,31.10
2019-05-22T17:26:02.417Z,30.87
2019-05-22T17:28:29.506Z,30.83
2019-05-22T17:30:56.526Z,30.91
2019-05-22T17:33:23.631Z,30.82
2019-05-22T17:35:50.735Z,31.03
2019-05-22T17:38:17.743Z,31.05
2019-05-22T17:40:44.816Z,30.94
2019-05-22T17:43:11.904Z,31.23
2019-05-22T17:45:38.962Z,31.77
2019-05-22T17:48:06.523Z,31.78
2019-05-22T17:50:33.997Z,32.17
2019-05-22T17:53:01.558Z,32.29
2019-05-22T17:55:29.048Z,32.36
2019-05-22T17:57:56.700Z,32.39
2019-05-22T18:00:27.267Z,32.63
2019-05-22T18:02:54.765Z,32.49
2019-05-22T18:05:22.407Z,33.04
2019-05-22T18:07:49.888Z,33.13
2019-05-22T18:10:17.023Z,33.37
2019-05-22T18:12:44.529Z,33.71
2019-05-22T18:15:11.983Z,34.18
2019-05-22T18:17:39.732Z,34.55
2019-05-22T18:20:07.291Z,34.92
2019-05-22T18:22:34.777Z,35.26
2019-05-22T18:25:02.309Z,35.72
2019-05-22T18:27:30.071Z,36.04
2019-05-22T18:29:57.552Z,36.37
2019-05-22T18:32:27.281Z,36.25
2019-05-22T18:34:54.752Z,36.45
2019-05-22T18:37:22.291Z,36.66
2019-05-22T18:39:49.774Z,37.13
2019-05-22T18:42:17.235Z,37.51
2019-05-22T18:44:44.796Z,37.55
2019-05-22T18:47:12.278Z,38.00
2019-05-22T18:49:39.821Z,38.26
2019-05-22T18:52:07.306Z,38.62
2019-05-22T18:54:36.206Z,39.16
2019-05-22T18:57:03.817Z,39.83
2019-05-22T18:59:31.278Z,40.51
2019-05-22T19:01:58.816Z,40.73
2019-05-22T19:04:26.437Z,40.81
2019-05-22T19:06:56.007Z,40.87
2019-05-22T19:09:22.813Z,40.91
2019-05-22T19:11:50.542Z,41.17
2019-05-22T19:14:18.052Z,41.47
2019-05-22T19:16:45.750Z,43.10
2019-05-22T19:19:13.207Z,43.40
2019-05-22T19:21:40.801Z,43.31
2019-05-22T19:24:08.301Z,43.09
2019-05-22T19:26:35.809Z,42.98
2019-05-22T19:29:03.378Z,42.75
2019-05-22T19:31:30.935Z,42.68
2019-05-22T19:33:58.397Z,41.76
2019-05-22T19:36:25.903Z,41.13
2019-05-22T19:38:53.384Z,40.39
2019-05-22T19:41:20.891Z,40.37
2019-05-22T19:43:48.562Z,40.41
2019-05-22T19:46:16.199Z,40.94
2019-05-22T19:48:43.694Z,41.14
2019-05-22T19:51:11.182Z,41.43
2019-05-22T19:53:38.703Z,41.57
2019-05-22T19:56:06.193Z,41.65
2019-05-22T19:58:33.711Z,41.87
2019-05-22T20:01:01.217Z,42.29
2019-05-22T20:03:28.703Z,42.11
2019-05-22T20:05:56.241Z,42.15
2019-05-22T20:08:23.808Z,42.43
2019-05-22T20:10:51.322Z,42.47
2019-05-22T20:13:18.823Z,42.07
2019-05-22T20:15:46.304Z,41.93
2019-05-22T20:18:13.794Z,42.07
2019-05-22T20:20:41.311Z,42.06
2019-05-22T20:23:08.878Z,41.91
2019-05-22T20:25:36.406Z,41.74
2019-05-22T20:28:04.014Z,41.75
2019-05-22T20:30:31.731Z,42.32
2019-05-22T20:32:59.205Z,42.48
2019-05-22T20:35:26.689Z,42.56
2019-05-22T20:37:54.243Z,42.54
2019-05-22T20:40:21.716Z,42.30
2019-05-22T20:42:49.180Z,42.05
2019-05-22T20:45:16.672Z,42.21
2019-05-22T20:47:44.148Z,42.32
2019-05-22T20:50:11.614Z,42.42
2019-05-22T20:52:39.408Z,42.25
2019-05-22T20:55:06.973Z,42.54
2019-05-22T20:57:34.429Z,42.44
2019-05-22T21:00:01.996Z,41.89
2019-05-22T21:02:29.452Z,42.02
2019-05-22T21:04:56.969Z,42.09
2019-05-22T21:07:24.465Z,41.99
2019-05-22T21:09:52.115Z,41.89
2019-05-22T21:12:19.772Z,41.79
2019-05-22T21:14:47.247Z,42.02
2019-05-22T21:17:14.702Z,41.96
2019-05-22T21:19:42.215Z,42.13
2019-05-22T21:22:09.930Z,42.58
2019-05-22T21:24:37.425Z,42.30
2019-05-22T21:27:05.068Z,42.45
2019-05-22T21:29:32.579Z,42.58
2019-05-22T21:32:00.059Z,42.60
2019-05-22T21:34:27.526Z,42.94
2019-05-22T21:36:55.204Z,42.80
2019-05-22T21:39:22.758Z,42.88
2019-05-22T21:41:50.383Z,42.66
2019-05-22T21:44:17.878Z,42.75
2019-05-22T21:46:45.373Z,42.96
2019-05-22T21:49:13.034Z,42.58
2019-05-22T21:51:40.514Z,42.42
2019-05-22T21:54:07.990Z,42.49
2019-05-22T21:56:35.504Z,42.89
2019-05-22T21:59:03.434Z,43.05
2019-05-22T22:01:31.025Z,43.07
2019-05-22T22:03:59.071Z,43.62
2019-05-22T22:06:26.568Z,43.20
2019-05-22T22:08:54.064Z,43.31
2019-05-22T22:11:22.240Z,43.35
2019-05-22T22:13:49.755Z,43.34
2019-05-22T22:16:17.236Z,43.55
2019-05-22T22:18:44.949Z,43.69
2019-05-22T22:21:12.430Z,43.67
2019-05-22T22:23:39.948Z,43.77
2019-05-22T22:26:24.244Z,43.76
2019-05-22T22:28:35.319Z,43.77
2019-05-22T22:31:02.846Z,43.98
2019-05-22T22:33:30.322Z,44.54
2019-05-22T22:35:57.801Z,44.67
2019-05-22T22:38:26.201Z,44.76
2019-05-22T22:40:53.802Z,45.09
2019-05-22T22:43:21.311Z,45.42
2019-05-22T22:48:41.380Z,46.08
2019-05-22T22:51:08.844Z,46.05
2019-05-22T22:53:36.315Z,45.98
2019-05-22T22:56:03.821Z,45.86
2019-05-22T22:58:31.345Z,45.69
2019-05-22T23:00:59.437Z,45.63
2019-05-22T23:03:27.113Z,45.52
2019-05-22T23:05:54.613Z,45.81
2019-05-22T23:08:22.114Z,45.63
2019-05-22T23:10:49.589Z,45.86
2019-05-22T23:13:17.060Z,46.34
2019-05-22T23:15:44.518Z,47.39
2019-05-22T23:18:12.019Z,48.24
2019-05-22T23:20:38.976Z,49.03
2019-05-22T23:23:06.186Z,49.43
2019-05-22T23:25:33.667Z,49.02
2019-05-22T23:28:01.160Z,48.78
2019-05-22T23:30:28.622Z,49.04
2019-05-22T23:32:56.105Z,49.32
2019-05-22T23:35:23.562Z,49.65
2019-05-22T23:37:51.326Z,50.71
2019-05-22T23:40:18.851Z,51.56
2019-05-22T23:42:46.304Z,51.76
2019-05-22T23:45:13.752Z,52.31
2019-05-22T23:47:53.139Z,52.62
2019-05-22T23:50:20.961Z,52.25
2019-05-22T23:52:48.485Z,52.54
2019-05-22T23:55:15.938Z,51.91
2019-05-22T23:57:43.481Z,52.70
